Glasgow, Montana
Current Conditions -  °F | °C
As of 9:29 PM on Saturday 22 Nov 2014 (Local Time) from KGGW Reporting Station
Overcast Overcast  
Wind Chill: 26°   Ceiling: 3600
Heat Index: 38°   Visibility: 10mi
Dew Point: 31°   Wind: 29mph
Humidity: 76%   Direction: 270°W
Pressure: 29.35"   Gusts: 39mph
Location:  48.2°N, 106.64°W
Report Text: KGGW 230429Z AUTO 27025G34KT 10SM SCT022 OVC036 03/M01 A2935 RMK AO2 PK WND 26034/0426 T00331006
Loading
Personal Weather Stations






























Interactive Weather Map New forecast layout! Learn more

10-Day Weather Forecast

Advertisements
Track Severe Weather on mobile